This is the latest recevied weather packets stored in our database for station/object YO8PIC-12. If no packets are shown the sender has not sent any weather packets the latest 10 day(s).
| Time | Temp. | Humidity | Pressure | Rain* | Wind** | Luminosity | Snow |
|---|---|---|---|---|---|---|---|
| 1787655037 | 33.89° C | 28% | 1022.9 hPa | - | - | - | - |
| 1787654437 | 34.44° C | 27% | 1022.9 hPa | - | - | - | - |
| 1787653837 | 33.33° C | 29% | 1023 hPa | - | - | - | - |
| 1787653237 | 32.22° C | 31% | 1023.1 hPa | - | - | - | - |
| 1787652637 | 31.67° C | 32% | 1023.2 hPa | - | - | - | - |
| 1787652037 | 31.11° C | 33% | 1023.4 hPa | - | - | - | - |
| 1787651437 | 30.56° C | 33% | 1023.6 hPa | - | - | - | - |
| 1787650837 | 30.56° C | 33% | 1023.9 hPa | - | - | - | - |
| 1787650237 | 30.56° C | 33% | 1023.9 hPa | - | - | - | - |
| 1787649637 | 31.11° C | 32% | 1024 hPa | - | - | - | - |
| 1787649037 | 30° C | 34% | 1024.1 hPa | - | - | - | - |
| 1787648437 | 30° C | 34% | 1024 hPa | - | - | - | - |
| 1787647837 | 31.67° C | 31% | 1024 hPa | - | - | - | - |
| 1787647237 | 33.89° C | 27% | 1024 hPa | - | - | - | - |
| 1787646637 | 33.33° C | 27% | 1024 hPa | - | - | - | - |
| 1787646037 | 36.67° C | 23% | 1023.8 hPa | - | - | - | - |
| 1787645437 | 38.33° C | 22% | 1023.9 hPa | - | - | - | - |
| 1787644838 | 37.78° C | 23% | 1024.1 hPa | - | - | - | - |
| 1787644237 | 35° C | 26% | 1024.2 hPa | - | - | - | - |
| 1787643637 | 33.33° C | 27% | 1024.2 hPa | - | - | - | - |
| 1787643037 | 31.67° C | 30% | 1024.3 hPa | - | - | - | - |
| 1787642437 | 32.78° C | 27% | 1024.3 hPa | - | - | - | - |
| 1787641837 | 34.44° C | 26% | 1024.3 hPa | - | - | - | - |
| 1787641237 | 35° C | 26% | 1024.3 hPa | - | - | - | - |
| 1787640637 | 32.78° C | 28% | 1024.4 hPa | - | - | - | - |
* Rain since midnight (hover to see other rain measurements)
** Current wind speed in m/s (hover to see current wind gust speed)